createdAt,value
2019-05-02T00:00:16.657Z,34.43
2019-05-02T00:02:46.153Z,33.70
2019-05-02T00:05:16.155Z,32.58
2019-05-02T00:07:45.299Z,37.40
2019-05-02T00:10:15.264Z,33.42
2019-05-02T00:12:44.610Z,33.42
2019-05-02T00:15:14.028Z,31.52
2019-05-02T00:17:43.185Z,31.33
2019-05-02T00:20:12.431Z,27.35
2019-05-02T00:22:41.651Z,31.70
2019-05-02T00:25:10.996Z,28.57
2019-05-02T00:27:41.598Z,28.70
2019-05-02T00:30:11.075Z,36.42
2019-05-02T00:32:40.335Z,27.25
2019-05-02T00:35:09.420Z,31.60
2019-05-02T00:37:38.559Z,32.03
2019-05-02T00:40:07.973Z,30.45
2019-05-02T00:42:37.173Z,27.50
2019-05-02T00:45:06.368Z,26.73
2019-05-02T00:47:37.180Z,30.20
2019-05-02T00:50:11.379Z,26.23
2019-05-02T00:52:38.505Z,29.57
2019-05-02T00:55:07.823Z,35.17
2019-05-02T00:57:37.011Z,32.58
2019-05-02T01:00:06.898Z,30.32
2019-05-02T01:02:49.714Z,29.77
2019-05-02T01:05:19.010Z,31.40
2019-05-02T01:07:48.120Z,27.00
2019-05-02T01:10:21.213Z,29.25
2019-05-02T01:12:48.127Z,28.67
2019-05-02T01:15:17.495Z,27.80
2019-05-02T01:17:46.767Z,28.87
2019-05-02T01:20:16.027Z,27.75
2019-05-02T01:22:47.150Z,31.45
2019-05-02T01:25:17.267Z,29.63
2019-05-02T01:27:51.169Z,27.52
2019-05-02T01:30:22.007Z,25.68
2019-05-02T01:32:52.698Z,29.20
2019-05-02T01:35:26.947Z,35.43
2019-05-02T01:38:11.691Z,27.87
2019-05-02T01:40:41.118Z,28.90
2019-05-02T01:43:30.492Z,28.70
2019-05-02T01:45:59.773Z,30.10
2019-05-02T01:48:29.034Z,31.23
2019-05-02T01:50:58.354Z,31.50
2019-05-02T01:53:29.226Z,28.45
2019-05-02T01:55:59.375Z,28.30
2019-05-02T01:58:28.745Z,29.92
2019-05-02T02:00:57.917Z,27.20
2019-05-02T02:03:27.043Z,26.07
2019-05-02T02:05:56.417Z,30.27
2019-05-02T02:08:27.208Z,32.42
2019-05-02T02:10:58.226Z,28.35
2019-05-02T02:13:31.202Z,30.88
2019-05-02T02:16:00.272Z,29.15
2019-05-02T02:18:30.739Z,31.05
2019-05-02T02:21:03.963Z,33.02
2019-05-02T02:23:37.848Z,29.35
2019-05-02T02:26:14.660Z,30.00
2019-05-02T02:28:43.881Z,29.72
2019-05-02T02:31:13.362Z,29.25
2019-05-02T02:33:48.028Z,27.10
2019-05-02T02:36:13.236Z,29.45
2019-05-02T02:38:42.378Z,27.93
2019-05-02T02:41:13.307Z,27.62
2019-05-02T02:43:42.606Z,29.07
2019-05-02T02:46:19.278Z,29.55
2019-05-02T02:48:48.379Z,29.15
2019-05-02T02:51:24.099Z,26.48
2019-05-02T02:53:48.534Z,28.30
2019-05-02T02:56:17.575Z,27.42
2019-05-02T02:58:47.983Z,31.57
2019-05-02T03:01:27.458Z,27.50
2019-05-02T03:03:48.484Z,26.73
2019-05-02T03:06:17.721Z,27.42
2019-05-02T03:08:49.270Z,25.02
2019-05-02T03:11:23.516Z,31.50
2019-05-02T03:14:05.711Z,27.60
2019-05-02T03:16:26.447Z,30.95
2019-05-02T03:18:55.640Z,30.05
2019-05-02T03:21:24.912Z,28.23
2019-05-02T03:24:03.496Z,29.02
2019-05-02T03:26:24.991Z,26.12
2019-05-02T03:28:58.395Z,28.92
2019-05-02T03:31:30.310Z,28.77
2019-05-02T03:34:00.707Z,28.87
2019-05-02T03:36:30.615Z,31.10
2019-05-02T03:38:57.551Z,27.62
2019-05-02T03:41:26.372Z,27.00
2019-05-02T03:44:09.783Z,31.82
2019-05-02T03:46:26.268Z,30.95
2019-05-02T03:49:06.223Z,29.82
2019-05-02T03:51:26.473Z,31.77
2019-05-02T03:54:05.666Z,31.55
2019-05-02T03:56:26.388Z,29.95
2019-05-02T03:58:57.949Z,30.12
2019-05-02T04:01:26.515Z,32.00
2019-05-02T04:03:55.871Z,29.63
2019-05-02T04:06:25.168Z,33.42
2019-05-02T04:08:59.835Z,35.48
2019-05-02T04:11:38.334Z,33.78
2019-05-02T04:13:58.774Z,33.20
2019-05-02T04:16:28.660Z,32.20
2019-05-02T04:18:58.384Z,35.00
2019-05-02T04:21:27.744Z,35.25
2019-05-02T04:24:07.568Z,37.90
2019-05-02T04:26:28.140Z,35.65
2019-05-02T04:28:57.439Z,40.40
2019-05-02T04:31:31.464Z,41.55
2019-05-02T04:33:57.467Z,42.13
2019-05-02T04:36:26.599Z,41.98
2019-05-02T04:38:59.331Z,41.58
2019-05-02T04:41:29.259Z,37.78
2019-05-02T04:44:01.275Z,40.08
2019-05-02T04:46:31.056Z,43.87
2019-05-02T04:48:59.279Z,61.18
2019-05-02T04:51:31.754Z,57.58
2019-05-02T04:54:02.904Z,51.33
2019-05-02T04:56:32.241Z,52.65
2019-05-02T04:59:02.278Z,49.15
2019-05-02T05:01:41.905Z,52.80
2019-05-02T05:04:03.465Z,49.18
2019-05-02T05:06:32.719Z,49.85
2019-05-02T05:09:03.992Z,58.28
2019-05-02T05:11:32.788Z,54.88
2019-05-02T05:14:01.969Z,54.18
2019-05-02T05:16:31.370Z,54.10
2019-05-02T05:19:00.540Z,54.33
2019-05-02T05:21:29.821Z,54.40
2019-05-02T05:24:01.451Z,52.13
2019-05-02T05:26:39.107Z,55.55
2019-05-02T05:29:08.280Z,53.25
2019-05-02T05:31:38.246Z,53.60
2019-05-02T05:34:08.038Z,49.88
2019-05-02T05:36:38.188Z,52.08
2019-05-02T05:39:11.547Z,54.08
2019-05-02T05:41:42.677Z,53.98
2019-05-02T05:44:09.949Z,52.27
2019-05-02T05:46:42.476Z,54.95
2019-05-02T05:49:20.270Z,53.08
2019-05-02T05:51:42.337Z,52.93
2019-05-02T05:54:11.406Z,52.85
2019-05-02T05:56:43.202Z,53.15
2019-05-02T05:59:11.667Z,59.95
2019-05-02T06:01:40.842Z,62.35
2019-05-02T06:04:13.788Z,58.65
2019-05-02T06:06:40.868Z,54.03
2019-05-02T06:09:09.996Z,58.68
2019-05-02T06:11:39.186Z,60.95
2019-05-02T06:14:08.354Z,53.95
2019-05-02T06:16:37.651Z,56.77
2019-05-02T06:19:06.702Z,56.73
2019-05-02T06:21:39.961Z,53.40
2019-05-02T06:24:10.981Z,48.83
2019-05-02T06:26:37.795Z,49.98
2019-05-02T06:29:06.863Z,46.68
2019-05-02T06:31:38.222Z,49.77
2019-05-02T06:34:08.276Z,47.23
2019-05-02T06:36:38.137Z,45.40
2019-05-02T06:39:07.168Z,50.05
2019-05-02T06:41:36.408Z,48.05
2019-05-02T06:44:05.596Z,46.65
2019-05-02T06:46:34.910Z,51.80
2019-05-02T06:49:04.152Z,46.80
2019-05-02T06:51:33.432Z,48.13
2019-05-02T06:54:02.750Z,49.73
2019-05-02T06:56:32.035Z,48.42
2019-05-02T06:59:02.833Z,47.88
2019-05-02T07:01:32.608Z,41.92
2019-05-02T07:04:04.159Z,46.45
2019-05-02T07:06:42.194Z,44.03
2019-05-02T07:09:04.586Z,35.75
2019-05-02T07:11:39.019Z,36.60
2019-05-02T07:14:13.085Z,45.98
2019-05-02T07:16:42.475Z,42.10
2019-05-02T07:19:31.449Z,46.40
2019-05-02T07:22:04.198Z,49.15
2019-05-02T07:24:32.700Z,54.35
2019-05-02T07:27:02.637Z,52.03
2019-05-02T07:29:32.118Z,58.00
2019-05-02T07:32:01.510Z,58.08
2019-05-02T07:34:30.913Z,57.13
2019-05-02T07:37:00.120Z,59.90
2019-05-02T07:39:29.372Z,58.50
2019-05-02T07:42:00.396Z,57.05
2019-05-02T07:44:32.532Z,58.28
2019-05-02T07:47:02.756Z,50.45
2019-05-02T07:49:32.117Z,55.45
2019-05-02T07:52:01.839Z,56.02
2019-05-02T07:54:31.045Z,55.43
2019-05-02T07:57:02.301Z,50.85
2019-05-02T07:59:31.170Z,52.00
2019-05-02T08:02:00.427Z,50.98
2019-05-02T08:04:29.795Z,50.35
2019-05-02T08:06:59.004Z,55.67
2019-05-02T08:09:28.529Z,49.95
2019-05-02T08:11:57.892Z,53.28
2019-05-02T08:14:29.295Z,49.03
2019-05-02T08:17:05.324Z,55.33
2019-05-02T08:19:28.619Z,49.55
2019-05-02T08:21:57.938Z,54.35
2019-05-02T08:24:27.354Z,56.63
2019-05-02T08:26:59.509Z,52.27
2019-05-02T08:29:30.776Z,56.35
2019-05-02T08:32:00.111Z,56.15
2019-05-02T08:34:33.902Z,51.08
2019-05-02T08:37:04.828Z,57.98
2019-05-02T08:39:35.641Z,45.85
2019-05-02T08:42:04.974Z,50.83
2019-05-02T08:44:34.406Z,48.05
2019-05-02T08:47:03.544Z,51.53
2019-05-02T08:49:33.012Z,46.53
2019-05-02T08:52:02.283Z,53.35
2019-05-02T08:54:32.764Z,50.88
2019-05-02T08:57:02.184Z,57.08
2019-05-02T08:59:31.438Z,49.88
2019-05-02T09:02:00.655Z,52.27
2019-05-02T09:04:30.701Z,50.17
2019-05-02T09:07:00.832Z,56.42
2019-05-02T09:09:30.272Z,57.75
2019-05-02T09:12:09.660Z,54.88
2019-05-02T09:14:32.075Z,52.60
2019-05-02T09:17:08.539Z,57.45
2019-05-02T09:19:34.745Z,60.15
2019-05-02T09:22:07.466Z,59.67
2019-05-02T09:24:33.787Z,60.60
2019-05-02T09:27:02.980Z,58.75
2019-05-02T09:29:32.712Z,60.92
2019-05-02T09:32:02.288Z,61.73
2019-05-02T09:34:31.937Z,69.95
2019-05-02T09:37:02.727Z,55.95
2019-05-02T09:39:36.386Z,62.27
2019-05-02T09:42:06.654Z,65.12
2019-05-02T09:44:33.479Z,61.30
2019-05-02T09:47:02.703Z,58.50
2019-05-02T09:49:32.498Z,55.12
2019-05-02T09:52:03.372Z,62.60
2019-05-02T09:54:32.371Z,58.28
2019-05-02T09:57:02.811Z,57.27
2019-05-02T09:59:33.175Z,62.83
2019-05-02T10:02:03.721Z,70.37
2019-05-02T10:04:33.036Z,58.35
2019-05-02T10:07:02.614Z,59.77
2019-05-02T10:09:32.439Z,75.03
2019-05-02T10:12:02.212Z,56.98
2019-05-02T10:14:33.073Z,60.35
2019-05-02T10:17:05.864Z,55.48
2019-05-02T10:19:32.952Z,52.70
2019-05-02T10:22:02.079Z,63.45
2019-05-02T10:24:32.278Z,60.35
2019-05-02T10:27:04.144Z,53.63
2019-05-02T10:29:32.939Z,51.60
2019-05-02T10:32:02.357Z,52.78
2019-05-02T10:34:32.957Z,58.20
2019-05-02T10:37:03.073Z,53.78
2019-05-02T10:39:34.084Z,53.13
2019-05-02T10:42:03.507Z,53.95
2019-05-02T10:44:36.527Z,49.40
2019-05-02T10:47:03.661Z,53.38
2019-05-02T10:49:42.354Z,53.85
2019-05-02T10:52:12.244Z,55.88
2019-05-02T10:54:42.165Z,50.25
2019-05-02T10:57:12.592Z,48.92
2019-05-02T10:59:42.162Z,48.75
2019-05-02T11:02:25.053Z,48.92
2019-05-02T11:05:04.677Z,52.62
2019-05-02T11:07:34.019Z,47.93
2019-05-02T11:10:06.677Z,47.80
2019-05-02T11:12:44.091Z,44.13
2019-05-02T11:15:13.435Z,44.80
2019-05-02T11:17:44.395Z,45.95
2019-05-02T11:20:13.529Z,45.20
2019-05-02T11:22:42.805Z,46.92
2019-05-02T11:25:12.111Z,44.08
2019-05-02T11:27:41.854Z,41.70
2019-05-02T11:30:12.215Z,43.00
2019-05-02T11:32:41.841Z,44.18
2019-05-02T11:35:12.216Z,44.45
2019-05-02T11:37:42.306Z,44.25
2019-05-02T11:40:12.844Z,43.25
2019-05-02T11:42:42.361Z,41.02
2019-05-02T11:45:12.069Z,49.63
2019-05-02T11:47:42.319Z,40.55
2019-05-02T11:50:11.942Z,43.78
2019-05-02T11:52:42.412Z,40.85
2019-05-02T11:55:12.913Z,39.30
2019-05-02T11:57:42.713Z,39.53
2019-05-02T12:00:12.547Z,37.65
2019-05-02T12:02:43.447Z,38.30
2019-05-02T12:05:17.426Z,34.38
2019-05-02T12:07:46.781Z,37.17
2019-05-02T12:10:16.275Z,38.48
2019-05-02T12:12:45.538Z,40.78
2019-05-02T12:15:14.907Z,40.28
2019-05-02T12:17:44.392Z,34.15
2019-05-02T12:20:13.659Z,35.33
2019-05-02T12:22:43.132Z,35.30
2019-05-02T12:25:12.808Z,39.48
2019-05-02T12:27:42.440Z,34.03
2019-05-02T12:30:12.101Z,36.10
2019-05-02T12:32:42.687Z,34.03
2019-05-02T12:35:12.460Z,32.30
2019-05-02T12:37:42.386Z,37.35
2019-05-02T12:40:12.227Z,34.23
2019-05-02T12:42:41.868Z,40.30
2019-05-02T12:45:12.302Z,36.15
2019-05-02T12:47:42.774Z,35.08
2019-05-02T12:50:12.274Z,30.65
2019-05-02T12:52:42.956Z,30.97
2019-05-02T12:55:12.842Z,30.97
2019-05-02T12:57:42.918Z,28.90
2019-05-02T13:00:12.866Z,30.12
2019-05-02T13:02:46.773Z,33.95
2019-05-02T13:05:16.107Z,28.30
2019-05-02T13:07:50.626Z,28.75
2019-05-02T13:10:17.712Z,31.48
2019-05-02T13:12:46.953Z,32.48
2019-05-02T13:15:16.430Z,30.40
2019-05-02T13:17:48.942Z,30.30
2019-05-02T13:20:17.898Z,30.27
2019-05-02T13:22:52.688Z,26.27
2019-05-02T13:25:27.197Z,26.93
2019-05-02T13:27:54.166Z,30.12
2019-05-02T13:30:32.788Z,23.90
2019-05-02T13:33:03.271Z,26.02
2019-05-02T13:35:36.846Z,23.55
2019-05-02T13:38:06.984Z,30.43
2019-05-02T13:40:37.565Z,25.60
2019-05-02T13:43:06.770Z,26.45
2019-05-02T13:45:37.498Z,27.67
2019-05-02T13:48:06.602Z,29.05
2019-05-02T13:50:35.731Z,26.62
2019-05-02T13:53:05.084Z,28.10
2019-05-02T13:55:35.975Z,26.12
2019-05-02T13:58:05.293Z,26.50
2019-05-02T14:00:35.804Z,28.32
2019-05-02T14:03:04.970Z,28.32
2019-05-02T14:05:34.169Z,25.77
2019-05-02T14:08:19.924Z,23.12
2019-05-02T14:11:01.836Z,22.80
2019-05-02T14:13:31.612Z,24.50
2019-05-02T14:16:02.663Z,33.33
2019-05-02T14:18:34.763Z,38.75
2019-05-02T14:21:03.936Z,47.88
2019-05-02T14:23:33.146Z,51.70
2019-05-02T14:26:02.521Z,51.55
2019-05-02T14:28:36.150Z,54.45
2019-05-02T14:31:02.398Z,53.38
2019-05-02T14:33:33.158Z,52.58
2019-05-02T14:36:02.313Z,56.55
2019-05-02T14:38:32.162Z,54.20
2019-05-02T14:41:08.688Z,56.10
2019-05-02T14:43:55.127Z,52.00
2019-05-02T14:46:28.728Z,60.67
2019-05-02T14:48:56.334Z,57.13
2019-05-02T14:51:27.674Z,56.33
2019-05-02T14:53:57.320Z,58.28
2019-05-02T14:56:32.887Z,55.00
2019-05-02T14:59:02.736Z,58.08
2019-05-02T15:01:32.260Z,54.58
2019-05-02T15:04:06.429Z,50.15
2019-05-02T15:06:33.711Z,51.73
2019-05-02T15:09:03.833Z,50.65
2019-05-02T15:11:34.927Z,48.78
2019-05-02T15:14:03.968Z,47.93
2019-05-02T15:16:40.385Z,50.92
2019-05-02T15:19:03.980Z,42.93
2019-05-02T15:21:42.342Z,47.05
2019-05-02T15:24:12.008Z,40.88
2019-05-02T15:26:41.822Z,44.75
2019-05-02T15:29:12.306Z,40.83
2019-05-02T15:31:57.981Z,44.10
2019-05-02T15:34:27.666Z,38.33
2019-05-02T15:36:57.024Z,39.95
2019-05-02T15:41:57.244Z,40.92
2019-05-02T15:44:27.109Z,36.68
2019-05-02T15:46:58.492Z,34.53
2019-05-02T15:49:28.347Z,37.03
2019-05-02T15:51:57.688Z,34.15
2019-05-02T15:54:26.992Z,41.75
2019-05-02T15:57:01.260Z,38.28
2019-05-02T15:59:41.670Z,35.23
2019-05-02T16:02:06.546Z,36.08
2019-05-02T16:04:37.408Z,39.92
2019-05-02T16:07:08.344Z,38.88
2019-05-02T16:09:37.770Z,31.10
2019-05-02T16:12:06.939Z,32.90
2019-05-02T16:14:36.281Z,30.00
2019-05-02T16:17:05.336Z,23.38
2019-05-02T16:19:36.041Z,17.12
2019-05-02T16:22:11.378Z,18.32
2019-05-02T16:24:43.894Z,20.17
2019-05-02T16:27:11.700Z,21.10
2019-05-02T16:29:41.815Z,22.27
2019-05-02T16:32:13.279Z,22.22
2019-05-02T16:34:56.137Z,21.40
2019-05-02T16:37:25.459Z,22.67
2019-05-02T16:39:54.778Z,22.32
2019-05-02T16:42:24.015Z,21.68
2019-05-02T16:44:54.785Z,21.27
2019-05-02T16:47:24.243Z,20.95
2019-05-02T16:49:56.370Z,19.62
2019-05-02T16:52:24.677Z,17.45
2019-05-02T16:54:54.011Z,19.57
2019-05-02T16:57:23.830Z,20.20
2019-05-02T17:00:00.729Z,18.65
2019-05-02T17:02:23.958Z,16.45
2019-05-02T17:04:54.584Z,16.50
2019-05-02T17:07:25.713Z,20.88
2019-05-02T17:09:56.468Z,15.55
2019-05-02T17:12:25.755Z,16.17
2019-05-02T17:15:14.084Z,16.05
2019-05-02T17:17:43.474Z,15.72
2019-05-02T17:20:16.531Z,17.07
2019-05-02T17:22:49.870Z,14.73
2019-05-02T17:25:15.098Z,14.58
2019-05-02T17:27:44.413Z,14.38
2019-05-02T17:30:13.483Z,16.20
2019-05-02T17:32:42.793Z,15.85
2019-05-02T17:35:14.629Z,17.02
2019-05-02T17:37:48.698Z,13.68
2019-05-02T17:40:16.783Z,16.60
2019-05-02T17:42:44.875Z,14.65
2019-05-02T17:45:14.184Z,19.07
2019-05-02T17:47:43.479Z,20.68
2019-05-02T17:50:22.062Z,20.32
2019-05-02T17:52:56.196Z,22.25
2019-05-02T17:55:26.652Z,23.73
2019-05-02T17:57:55.859Z,25.92
2019-05-02T18:00:26.566Z,21.45
2019-05-02T18:02:55.879Z,27.00
2019-05-02T18:05:26.442Z,27.45
2019-05-02T18:07:55.851Z,28.17
2019-05-02T18:10:25.324Z,33.13
2019-05-02T18:12:58.247Z,29.90
2019-05-02T18:15:25.032Z,38.05
2019-05-02T18:17:54.312Z,29.90
2019-05-02T18:20:25.355Z,29.85
2019-05-02T18:22:54.793Z,28.92
2019-05-02T18:25:25.403Z,29.48
2019-05-02T18:27:54.750Z,33.98
2019-05-02T18:30:26.839Z,33.63
2019-05-02T18:32:57.896Z,33.75
2019-05-02T18:35:25.165Z,31.52
2019-05-02T18:37:54.485Z,33.35
2019-05-02T18:40:27.821Z,30.20
2019-05-02T18:42:56.515Z,36.83
2019-05-02T18:45:28.504Z,30.80
2019-05-02T18:48:02.184Z,34.13
2019-05-02T18:50:36.802Z,34.20
2019-05-02T18:53:07.578Z,39.35
2019-05-02T18:55:37.426Z,37.75
2019-05-02T18:58:08.123Z,35.23
2019-05-02T19:00:39.486Z,36.30
2019-05-02T19:03:13.278Z,36.50
2019-05-02T19:05:39.491Z,35.33
2019-05-02T19:08:11.982Z,40.73
2019-05-02T19:10:55.829Z,36.70
2019-05-02T19:13:13.353Z,35.75
2019-05-02T19:15:45.341Z,37.88
2019-05-02T19:18:18.186Z,35.15
2019-05-02T19:20:57.628Z,34.70
2019-05-02T19:23:28.389Z,33.67
2019-05-02T19:26:02.287Z,36.70
2019-05-02T19:28:34.670Z,31.70
2019-05-02T19:31:06.728Z,34.95
2019-05-02T19:33:37.512Z,32.73
2019-05-02T19:36:06.591Z,35.38
2019-05-02T19:38:36.920Z,35.50
2019-05-02T19:41:09.206Z,35.73
2019-05-02T19:43:48.906Z,38.63
2019-05-02T19:46:12.822Z,35.83
2019-05-02T19:48:43.058Z,33.02
2019-05-02T19:51:18.664Z,37.17
2019-05-02T19:53:45.014Z,38.15
2019-05-02T19:56:14.890Z,39.33
2019-05-02T19:58:46.623Z,34.95
2019-05-02T20:01:22.280Z,36.03
2019-05-02T20:03:51.918Z,40.00
2019-05-02T20:06:22.739Z,39.18
2019-05-02T20:08:58.945Z,36.10
2019-05-02T20:11:28.032Z,33.65
2019-05-02T20:14:00.633Z,38.02
2019-05-02T20:16:31.888Z,34.75
2019-05-02T20:19:01.932Z,25.17
2019-05-02T20:21:34.275Z,21.35
2019-05-02T20:24:04.251Z,17.92
2019-05-02T20:26:34.515Z,18.25
2019-05-02T20:29:03.808Z,17.30
2019-05-02T20:31:33.332Z,12.85
2019-05-02T20:34:02.685Z,10.55
2019-05-02T20:36:32.183Z,11.12
2019-05-02T20:39:02.283Z,9.33
2019-05-02T20:41:31.779Z,9.30
2019-05-02T20:44:02.640Z,9.48
2019-05-02T20:46:32.631Z,7.42
2019-05-02T20:49:02.034Z,10.43
2019-05-02T20:51:31.936Z,7.87
2019-05-02T20:54:02.010Z,7.40
2019-05-02T20:56:32.134Z,8.43
2019-05-02T20:59:02.003Z,7.25
2019-05-02T21:01:32.167Z,11.78
2019-05-02T21:04:02.713Z,6.85
2019-05-02T21:06:40.936Z,10.50
2019-05-02T21:09:12.163Z,9.18
2019-05-02T21:11:43.000Z,10.75
2019-05-02T21:14:12.365Z,8.73
2019-05-02T21:16:41.677Z,9.98
2019-05-02T21:19:12.362Z,7.95
2019-05-02T21:21:42.705Z,8.55
2019-05-02T21:24:11.824Z,8.10
2019-05-02T21:26:42.136Z,10.58
2019-05-02T21:29:12.132Z,7.83
2019-05-02T21:31:42.513Z,10.20
2019-05-02T21:34:11.887Z,11.00
2019-05-02T21:36:42.560Z,5.20
2019-05-02T21:39:12.288Z,5.28
2019-05-02T21:41:42.375Z,7.22
2019-05-02T21:44:13.146Z,5.05
2019-05-02T21:46:42.530Z,9.53
2019-05-02T21:49:13.304Z,7.10
2019-05-02T21:51:56.428Z,8.20
2019-05-02T21:54:27.128Z,5.30
2019-05-02T21:57:00.367Z,7.22
2019-05-02T21:59:29.655Z,8.63
2019-05-02T22:02:02.267Z,8.65
2019-05-02T22:04:31.765Z,6.17
2019-05-02T22:07:03.739Z,5.83
2019-05-02T22:09:33.120Z,5.20
2019-05-02T22:12:02.439Z,4.35
2019-05-02T22:14:32.839Z,5.17
2019-05-02T22:17:02.331Z,5.42
2019-05-02T22:19:32.353Z,4.65
2019-05-02T22:22:01.677Z,6.28
2019-05-02T22:24:30.845Z,3.87
2019-05-02T22:27:01.782Z,6.90
2019-05-02T22:29:32.420Z,4.33
2019-05-02T22:32:02.968Z,4.67
2019-05-02T22:34:32.761Z,5.40
2019-05-02T22:37:02.629Z,7.12
2019-05-02T22:39:42.287Z,6.00
2019-05-02T22:42:12.805Z,4.70
2019-05-02T22:44:42.200Z,6.20
2019-05-02T22:47:11.802Z,4.58
2019-05-02T22:49:42.380Z,5.12
2019-05-02T22:52:12.198Z,4.00
2019-05-02T22:54:42.119Z,4.33
2019-05-02T22:57:11.532Z,5.62
2019-05-02T22:59:42.342Z,6.15
2019-05-02T23:02:12.741Z,8.35
2019-05-02T23:04:42.187Z,3.67
2019-05-02T23:07:12.648Z,6.78
2019-05-02T23:09:43.634Z,6.37
2019-05-02T23:12:13.163Z,4.83
2019-05-02T23:14:42.605Z,5.62
2019-05-02T23:17:12.729Z,5.47
2019-05-02T23:19:42.476Z,4.40
2019-05-02T23:22:12.679Z,4.90
2019-05-02T23:25:02.892Z,5.20
2019-05-02T23:27:39.647Z,5.60
2019-05-02T23:30:09.100Z,5.47
2019-05-02T23:32:38.396Z,6.05
2019-05-02T23:35:07.615Z,6.45
2019-05-02T23:37:36.688Z,11.83
2019-05-02T23:40:06.626Z,6.85
2019-05-02T23:42:35.771Z,5.55
2019-05-02T23:45:05.766Z,4.45
2019-05-02T23:47:34.841Z,4.95
2019-05-02T23:50:04.085Z,6.12
2019-05-02T23:52:33.400Z,6.90
2019-05-02T23:55:03.003Z,6.20
2019-05-02T23:57:32.547Z,5.97
